createdAt,value
2019-03-17T14:10:13.503Z,985.59
2019-03-17T14:11:06.756Z,985.66
2019-03-17T14:12:06.961Z,985.78
2019-03-17T14:13:06.965Z,985.85
2019-03-17T14:14:06.965Z,985.97
2019-03-17T14:15:07.174Z,985.93
2019-03-17T14:16:06.644Z,985.95
2019-03-17T14:17:06.791Z,986.03
2019-03-17T14:18:07.193Z,986.13
2019-03-17T14:19:06.846Z,986.19
2019-03-17T14:20:06.805Z,986.19
2019-03-17T14:21:07.024Z,986.27
2019-03-17T14:22:06.703Z,986.23
2019-03-17T14:23:07.070Z,986.34
2019-03-17T14:24:06.603Z,986.36
2019-03-17T14:25:06.822Z,986.42
2019-03-17T14:26:06.700Z,986.59
2019-03-17T14:27:06.629Z,986.64
2019-03-17T14:28:06.606Z,986.74
2019-03-17T14:29:06.605Z,986.55
2019-03-17T14:30:07.652Z,986.73
2019-03-17T14:31:06.873Z,986.53
2019-03-17T14:32:06.633Z,986.64
2019-03-17T14:33:07.227Z,986.62
2019-03-17T14:34:06.416Z,986.74
2019-03-17T14:35:06.626Z,986.69
2019-03-17T14:36:06.493Z,986.66
2019-03-17T14:37:06.633Z,986.67
2019-03-17T14:38:06.693Z,986.70
2019-03-17T14:39:06.661Z,986.81
2019-03-17T14:40:06.643Z,986.62
2019-03-17T14:41:06.472Z,986.60
2019-03-17T14:42:06.765Z,986.68
2019-03-17T14:43:06.691Z,986.63
2019-03-17T14:44:06.700Z,986.56
2019-03-17T14:45:06.692Z,986.58
2019-03-17T14:46:06.689Z,986.52
2019-03-17T14:47:06.752Z,986.51
2019-03-17T14:48:06.866Z,986.52
2019-03-17T14:49:06.612Z,986.43
2019-03-17T14:50:06.734Z,986.40
2019-03-17T14:51:06.707Z,986.39
2019-03-17T14:52:06.744Z,986.42
2019-03-17T14:53:06.717Z,986.22
2019-03-17T14:54:07.015Z,986.29
2019-03-17T14:55:06.773Z,986.26
2019-03-17T14:56:06.963Z,986.26
2019-03-17T14:57:06.738Z,986.27
2019-03-17T14:58:06.915Z,986.29
2019-03-17T14:59:06.925Z,986.24
2019-03-17T15:00:06.814Z,986.28
2019-03-17T15:01:06.812Z,986.21
2019-03-17T15:02:07.546Z,986.20
2019-03-17T15:03:07.483Z,986.38
2019-03-17T15:04:07.695Z,986.33
2019-03-17T15:05:07.663Z,986.31
2019-03-17T15:06:07.496Z,986.35
2019-03-17T15:07:07.301Z,986.33
2019-03-17T15:08:07.507Z,986.44
2019-03-17T15:09:07.832Z,986.44
2019-03-17T15:10:07.720Z,986.54
2019-03-17T15:11:07.736Z,986.53
2019-03-17T15:12:07.732Z,986.60
2019-03-17T15:13:07.751Z,986.48
2019-03-17T15:14:07.755Z,986.62
2019-03-17T15:15:07.766Z,986.69
2019-03-17T15:16:07.662Z,986.70
2019-03-17T15:17:07.783Z,986.75
2019-03-17T15:18:07.572Z,986.72
2019-03-17T15:19:07.985Z,986.77
2019-03-17T15:20:07.385Z,986.83
2019-03-17T15:21:07.386Z,986.76
2019-03-17T15:22:07.816Z,986.77
2019-03-17T15:23:07.503Z,986.80
2019-03-17T15:24:07.406Z,986.82
2019-03-17T15:25:08.029Z,986.86
2019-03-17T15:26:07.818Z,986.83
2019-03-17T15:27:08.135Z,986.87
2019-03-17T15:28:07.633Z,986.89
2019-03-17T15:29:07.847Z,986.86
2019-03-17T15:30:07.857Z,986.94
2019-03-17T15:31:11.923Z,987.01
2019-03-17T15:32:07.862Z,987.03
2019-03-17T15:33:08.070Z,987.01
2019-03-17T15:34:08.084Z,986.98
2019-03-17T15:35:08.104Z,987.01
2019-03-17T15:36:07.759Z,987.08
2019-03-17T15:37:07.914Z,987.08
2019-03-17T15:38:07.684Z,987.15
2019-03-17T15:39:07.896Z,987.07
2019-03-17T15:40:07.915Z,987.07
2019-03-17T15:41:18.003Z,987.04
2019-03-17T15:42:07.723Z,986.98
2019-03-17T15:43:07.950Z,987.06
2019-03-17T15:44:08.144Z,987.04
2019-03-17T15:45:07.918Z,987.03
2019-03-17T15:46:07.945Z,987.00
2019-03-17T15:47:07.761Z,987.09
2019-03-17T15:48:07.758Z,987.03
2019-03-17T15:49:07.981Z,987.19
2019-03-17T15:50:07.859Z,987.10
2019-03-17T15:51:19.660Z,987.14
2019-03-17T15:52:07.986Z,986.91
2019-03-17T15:53:07.789Z,987.02
2019-03-17T15:54:07.789Z,987.08
2019-03-17T15:55:07.792Z,987.08
2019-03-17T15:56:07.816Z,987.12
2019-03-17T15:57:08.226Z,987.08
2019-03-17T15:58:07.826Z,987.02
2019-03-17T15:59:08.138Z,987.08
2019-03-17T16:00:08.047Z,987.04
2019-03-17T16:01:07.852Z,986.95
2019-03-17T16:02:07.849Z,987.05
2019-03-17T16:03:07.967Z,987.18
2019-03-17T16:04:07.648Z,987.07
2019-03-17T16:05:08.273Z,987.09
2019-03-17T16:06:08.071Z,987.11
2019-03-17T16:07:08.090Z,987.13
2019-03-17T16:08:08.083Z,987.22
2019-03-17T16:09:07.915Z,987.23
2019-03-17T16:10:07.897Z,987.18
2019-03-17T16:11:08.332Z,987.31
2019-03-17T16:12:07.691Z,987.37
2019-03-17T16:13:07.914Z,987.43
2019-03-17T16:14:07.513Z,987.43
2019-03-17T16:15:08.359Z,987.46
2019-03-17T16:16:07.520Z,987.50
2019-03-17T16:17:07.529Z,987.55
2019-03-17T16:18:07.539Z,987.52
2019-03-17T16:19:07.677Z,987.65
2019-03-17T16:20:07.349Z,987.65
2019-03-17T16:21:09.051Z,987.69
2019-03-17T16:22:07.761Z,987.69
2019-03-17T16:23:07.552Z,987.73
2019-03-17T16:24:07.328Z,987.74
2019-03-17T16:25:07.571Z,987.69
2019-03-17T16:26:07.605Z,987.67
2019-03-17T16:27:07.813Z,987.73
2019-03-17T16:28:07.802Z,987.70
2019-03-17T16:29:07.603Z,987.74
2019-03-17T16:30:07.346Z,987.77
2019-03-17T16:31:07.400Z,987.74
2019-03-17T16:32:07.835Z,987.75
2019-03-17T16:33:07.629Z,987.78
2019-03-17T16:34:07.832Z,987.73
2019-03-17T16:35:07.635Z,987.95
2019-03-17T16:36:07.851Z,988.03
2019-03-17T16:37:07.643Z,988.20
2019-03-17T16:38:07.393Z,988.45
2019-03-17T16:39:07.668Z,988.65
2019-03-17T16:40:07.469Z,988.68
2019-03-17T16:41:07.573Z,988.89
2019-03-17T16:42:07.475Z,988.92
2019-03-17T16:43:07.401Z,988.88
2019-03-17T16:44:07.494Z,989.06
2019-03-17T16:45:07.898Z,988.99
2019-03-17T16:46:07.401Z,988.97
2019-03-17T16:47:07.716Z,989.04
2019-03-17T16:48:07.282Z,988.98
2019-03-17T16:49:07.371Z,989.10
2019-03-17T16:50:07.618Z,989.08
2019-03-17T16:51:07.531Z,989.12
2019-03-17T16:52:07.943Z,989.03
2019-03-17T16:53:07.750Z,989.01
2019-03-17T16:54:07.758Z,989.08
2019-03-17T16:55:07.741Z,989.07
2019-03-17T16:56:07.542Z,989.04
2019-03-17T16:57:07.771Z,988.86
2019-03-17T16:58:07.575Z,988.76
2019-03-17T16:59:07.589Z,988.72
2019-03-17T17:00:07.593Z,988.71
2019-03-17T17:01:08.020Z,988.71
2019-03-17T17:02:07.803Z,988.63
2019-03-17T17:03:07.541Z,988.57
2019-03-17T17:04:07.813Z,988.59
2019-03-17T17:05:07.821Z,988.58
2019-03-17T17:06:08.062Z,988.60
2019-03-17T17:07:07.651Z,988.57
2019-03-17T17:08:07.862Z,988.53
2019-03-17T17:09:07.836Z,988.59
2019-03-17T17:10:07.591Z,988.53
2019-03-17T17:11:07.667Z,988.57
2019-03-17T17:12:07.454Z,988.52
2019-03-17T17:13:08.290Z,988.54
2019-03-17T17:14:07.871Z,988.56
2019-03-17T17:15:08.095Z,988.50
2019-03-17T17:16:07.839Z,988.51
2019-03-17T17:17:08.113Z,988.57
2019-03-17T17:18:07.914Z,988.64
2019-03-17T17:19:08.529Z,988.51
2019-03-17T17:20:08.118Z,988.63
2019-03-17T17:21:08.127Z,988.61
2019-03-17T17:22:07.929Z,988.61
2019-03-17T17:23:08.352Z,988.65
2019-03-17T17:24:07.932Z,988.63
2019-03-17T17:25:07.951Z,988.53
2019-03-17T17:26:07.311Z,988.62
2019-03-17T17:27:07.549Z,988.61
2019-03-17T17:28:07.980Z,988.63
2019-03-17T17:29:07.353Z,988.59
2019-03-17T17:30:07.992Z,988.54
2019-03-17T17:31:07.587Z,988.59
2019-03-17T17:32:07.401Z,988.50
2019-03-17T17:33:07.952Z,988.58
2019-03-17T17:34:08.210Z,988.59
2019-03-17T17:35:08.040Z,988.68
2019-03-17T17:36:08.214Z,988.62
2019-03-17T17:37:08.014Z,988.70
2019-03-17T17:38:07.611Z,988.63
2019-03-17T17:39:07.821Z,988.75
2019-03-17T17:40:08.039Z,988.70
2019-03-17T17:41:10.981Z,988.71
2019-03-17T17:42:09.851Z,988.70
2019-03-17T17:43:08.757Z,988.68
2019-03-17T17:44:07.868Z,988.71
2019-03-17T17:45:08.212Z,988.78
2019-03-17T17:46:07.674Z,988.81
2019-03-17T17:47:08.297Z,988.87
2019-03-17T17:48:08.102Z,988.80
2019-03-17T17:49:08.043Z,988.83
2019-03-17T17:50:08.312Z,988.81
2019-03-17T17:51:08.325Z,988.89
2019-03-17T17:52:08.113Z,988.86
2019-03-17T17:53:08.125Z,988.89
2019-03-17T17:54:08.552Z,988.92
2019-03-17T17:55:08.357Z,988.88
2019-03-17T17:56:08.142Z,988.88
2019-03-17T17:57:08.156Z,988.94
2019-03-17T17:58:08.154Z,988.91
2019-03-17T17:59:08.360Z,989.02
2019-03-17T18:00:08.172Z,989.05
2019-03-17T18:01:08.377Z,989.09
2019-03-17T18:02:08.805Z,989.06
2019-03-17T18:03:08.385Z,989.09
2019-03-17T18:04:08.392Z,989.07
2019-03-17T18:05:08.618Z,989.03
2019-03-17T18:06:08.613Z,989.09
2019-03-17T18:07:08.630Z,989.11
2019-03-17T18:08:08.221Z,989.16
2019-03-17T18:09:08.634Z,989.24
2019-03-17T18:10:08.451Z,989.18
2019-03-17T18:11:08.671Z,989.23
2019-03-17T18:12:20.099Z,989.22
2019-03-17T18:13:08.455Z,989.30
2019-03-17T18:14:08.672Z,989.27
2019-03-17T18:15:08.062Z,989.37
2019-03-17T18:16:08.672Z,989.31
2019-03-17T18:17:08.491Z,989.33
2019-03-17T18:18:08.679Z,989.39
2019-03-17T18:19:08.136Z,989.38
2019-03-17T18:20:08.492Z,989.45
2019-03-17T18:21:08.503Z,989.48
2019-03-17T18:22:10.018Z,989.41
2019-03-17T18:23:17.972Z,989.45
2019-03-17T18:24:08.721Z,989.47
2019-03-17T18:25:08.928Z,989.45
2019-03-17T18:26:08.532Z,989.48
2019-03-17T18:27:08.335Z,989.49
2019-03-17T18:28:07.899Z,989.50
2019-03-17T18:29:08.148Z,989.48
2019-03-17T18:30:08.085Z,989.52
2019-03-17T18:31:07.743Z,989.56
2019-03-17T18:32:07.933Z,989.46
2019-03-17T18:33:08.163Z,989.55
2019-03-17T18:34:07.982Z,989.55
2019-03-17T18:35:08.203Z,989.61
2019-03-17T18:36:07.967Z,989.63
2019-03-17T18:37:08.042Z,989.59
2019-03-17T18:38:07.986Z,989.68
2019-03-17T18:39:08.404Z,989.63
2019-03-17T18:40:07.833Z,989.61
2019-03-17T18:41:08.632Z,989.68
2019-03-17T18:42:07.784Z,989.71
2019-03-17T18:43:08.244Z,989.78
2019-03-17T18:44:07.736Z,989.78
2019-03-17T18:45:08.251Z,989.74
2019-03-17T18:46:08.262Z,989.78
